sensor_id;sensor_type;location;lat;lon;timestamp;P1;durP1;ratioP1;P2;durP2;ratioP2
11024;SDS011;22890;51.820;8.682;2024-03-08T00:00:21;21.93;;;13.03;;
11024;SDS011;22890;51.820;8.682;2024-03-08T00:02:48;24.30;;;14.23;;
11024;SDS011;22890;51.820;8.682;2024-03-08T00:05:17;20.40;;;13.47;;
11024;SDS011;22890;51.820;8.682;2024-03-08T00:07:44;22.50;;;12.60;;
11024;SDS011;22890;51.820;8.682;2024-03-08T00:10:12;23.70;;;13.97;;
11024;SDS011;22890;51.820;8.682;2024-03-08T00:12:41;22.97;;;12.73;;
11024;SDS011;22890;51.820;8.682;2024-03-08T00:15:13;21.77;;;13.17;;
11024;SDS011;22890;51.820;8.682;2024-03-08T00:17:44;26.17;;;14.33;;
11024;SDS011;22890;51.820;8.682;2024-03-08T00:20:12;22.13;;;13.53;;
11024;SDS011;22890;51.820;8.682;2024-03-08T00:22:40;24.70;;;14.40;;
11024;SDS011;22890;51.820;8.682;2024-03-08T00:25:07;19.73;;;12.90;;
11024;SDS011;22890;51.820;8.682;2024-03-08T00:27:35;20.83;;;14.13;;
11024;SDS011;22890;51.820;8.682;2024-03-08T00:30:02;22.43;;;14.57;;
11024;SDS011;22890;51.820;8.682;2024-03-08T00:32:30;21.80;;;13.93;;
11024;SDS011;22890;51.820;8.682;2024-03-08T00:34:58;24.03;;;14.03;;
11024;SDS011;22890;51.820;8.682;2024-03-08T00:37:25;23.37;;;13.83;;
11024;SDS011;22890;51.820;8.682;2024-03-08T00:39:52;26.23;;;14.73;;
11024;SDS011;22890;51.820;8.682;2024-03-08T00:42:20;26.50;;;14.53;;
11024;SDS011;22890;51.820;8.682;2024-03-08T00:44:47;25.50;;;14.67;;
11024;SDS011;22890;51.820;8.682;2024-03-08T00:47:17;21.30;;;13.47;;
11024;SDS011;22890;51.820;8.682;2024-03-08T00:49:45;23.63;;;13.63;;
11024;SDS011;22890;51.820;8.682;2024-03-08T00:52:12;24.03;;;14.80;;
11024;SDS011;22890;51.820;8.682;2024-03-08T00:54:40;24.43;;;13.63;;
11024;SDS011;22890;51.820;8.682;2024-03-08T00:57:09;24.20;;;14.77;;
11024;SDS011;22890;51.820;8.682;2024-03-08T00:59:37;18.97;;;13.37;;
11024;SDS011;22890;51.820;8.682;2024-03-08T01:02:04;22.37;;;14.00;;
11024;SDS011;22890;51.820;8.682;2024-03-08T01:04:32;27.83;;;14.30;;
11024;SDS011;22890;51.820;8.682;2024-03-08T01:06:59;27.10;;;14.63;;
11024;SDS011;22890;51.820;8.682;2024-03-08T01:09:26;22.87;;;13.73;;
11024;SDS011;22890;51.820;8.682;2024-03-08T01:11:54;24.10;;;14.73;;
11024;SDS011;22890;51.820;8.682;2024-03-08T01:14:22;23.97;;;13.73;;
11024;SDS011;22890;51.820;8.682;2024-03-08T01:16:49;24.53;;;13.87;;
11024;SDS011;22890;51.820;8.682;2024-03-08T01:19:16;22.87;;;13.40;;
11024;SDS011;22890;51.820;8.682;2024-03-08T01:21:44;24.70;;;15.13;;
11024;SDS011;22890;51.820;8.682;2024-03-08T01:24:10;28.10;;;14.40;;
11024;SDS011;22890;51.820;8.682;2024-03-08T01:26:37;24.80;;;15.13;;
11024;SDS011;22890;51.820;8.682;2024-03-08T01:29:05;23.67;;;14.53;;
11024;SDS011;22890;51.820;8.682;2024-03-08T01:31:32;25.03;;;14.60;;
11024;SDS011;22890;51.820;8.682;2024-03-08T01:33:59;25.50;;;15.30;;
11024;SDS011;22890;51.820;8.682;2024-03-08T01:36:26;19.20;;;12.70;;
11024;SDS011;22890;51.820;8.682;2024-03-08T01:38:53;23.43;;;14.80;;
11024;SDS011;22890;51.820;8.682;2024-03-08T01:41:20;22.63;;;13.53;;
11024;SDS011;22890;51.820;8.682;2024-03-08T01:43:47;23.00;;;14.53;;
11024;SDS011;22890;51.820;8.682;2024-03-08T01:46:17;21.73;;;13.93;;
11024;SDS011;22890;51.820;8.682;2024-03-08T01:48:48;23.53;;;14.20;;
11024;SDS011;22890;51.820;8.682;2024-03-08T01:51:17;20.70;;;12.60;;
11024;SDS011;22890;51.820;8.682;2024-03-08T01:53:45;24.10;;;14.60;;
11024;SDS011;22890;51.820;8.682;2024-03-08T01:56:13;31.00;;;15.47;;
11024;SDS011;22890;51.820;8.682;2024-03-08T01:58:41;27.27;;;15.30;;
11024;SDS011;22890;51.820;8.682;2024-03-08T02:01:10;23.23;;;14.77;;
11024;SDS011;22890;51.820;8.682;2024-03-08T02:03:41;26.90;;;14.40;;
11024;SDS011;22890;51.820;8.682;2024-03-08T02:06:12;25.13;;;14.73;;
11024;SDS011;22890;51.820;8.682;2024-03-08T02:08:41;25.40;;;14.60;;
11024;SDS011;22890;51.820;8.682;2024-03-08T02:11:12;26.50;;;14.60;;
11024;SDS011;22890;51.820;8.682;2024-03-08T02:13:40;29.87;;;15.27;;
11024;SDS011;22890;51.820;8.682;2024-03-08T02:16:07;27.97;;;15.03;;
11024;SDS011;22890;51.820;8.682;2024-03-08T02:18:35;25.70;;;14.63;;
11024;SDS011;22890;51.820;8.682;2024-03-08T02:21:03;25.73;;;15.40;;
11024;SDS011;22890;51.820;8.682;2024-03-08T02:23:31;25.87;;;15.83;;
11024;SDS011;22890;51.820;8.682;2024-03-08T02:25:59;26.30;;;15.00;;
11024;SDS011;22890;51.820;8.682;2024-03-08T02:28:26;23.13;;;14.37;;
11024;SDS011;22890;51.820;8.682;2024-03-08T02:30:53;22.13;;;14.20;;
11024;SDS011;22890;51.820;8.682;2024-03-08T02:33:24;23.77;;;14.00;;
11024;SDS011;22890;51.820;8.682;2024-03-08T02:35:52;26.63;;;14.40;;
11024;SDS011;22890;51.820;8.682;2024-03-08T02:38:20;28.13;;;15.70;;
11024;SDS011;22890;51.820;8.682;2024-03-08T02:40:49;27.07;;;14.30;;
11024;SDS011;22890;51.820;8.682;2024-03-08T02:43:17;26.77;;;14.83;;
11024;SDS011;22890;51.820;8.682;2024-03-08T02:45:45;29.93;;;15.10;;
11024;SDS011;22890;51.820;8.682;2024-03-08T02:48:12;28.83;;;14.97;;
11024;SDS011;22890;51.820;8.682;2024-03-08T02:50:40;26.17;;;15.83;;
11024;SDS011;22890;51.820;8.682;2024-03-08T02:53:08;27.07;;;15.20;;
11024;SDS011;22890;51.820;8.682;2024-03-08T02:55:36;26.70;;;15.20;;
11024;SDS011;22890;51.820;8.682;2024-03-08T02:58:03;27.43;;;15.13;;
11024;SDS011;22890;51.820;8.682;2024-03-08T03:00:31;28.30;;;16.07;;
11024;SDS011;22890;51.820;8.682;2024-03-08T03:02:59;26.73;;;15.07;;
11024;SDS011;22890;51.820;8.682;2024-03-08T03:05:29;27.10;;;15.07;;
11024;SDS011;22890;51.820;8.682;2024-03-08T03:07:56;31.63;;;15.93;;
11024;SDS011;22890;51.820;8.682;2024-03-08T03:10:24;29.57;;;15.13;;
11024;SDS011;22890;51.820;8.682;2024-03-08T03:12:52;30.90;;;15.77;;
11024;SDS011;22890;51.820;8.682;2024-03-08T03:15:19;28.40;;;15.23;;
11024;SDS011;22890;51.820;8.682;2024-03-08T03:17:47;28.73;;;16.43;;
11024;SDS011;22890;51.820;8.682;2024-03-08T03:20:15;31.50;;;17.23;;
11024;SDS011;22890;51.820;8.682;2024-03-08T03:22:49;29.33;;;16.47;;
11024;SDS011;22890;51.820;8.682;2024-03-08T03:25:19;28.63;;;16.53;;
11024;SDS011;22890;51.820;8.682;2024-03-08T03:27:52;29.07;;;15.10;;
11024;SDS011;22890;51.820;8.682;2024-03-08T03:30:23;34.50;;;18.33;;
11024;SDS011;22890;51.820;8.682;2024-03-08T03:32:52;33.80;;;17.03;;
11024;SDS011;22890;51.820;8.682;2024-03-08T03:35:21;30.87;;;17.03;;
11024;SDS011;22890;51.820;8.682;2024-03-08T03:37:49;30.03;;;16.33;;
11024;SDS011;22890;51.820;8.682;2024-03-08T03:40:37;32.67;;;15.43;;
11024;SDS011;22890;51.820;8.682;2024-03-08T03:43:05;25.37;;;14.90;;
11024;SDS011;22890;51.820;8.682;2024-03-08T03:45:33;28.17;;;14.87;;
11024;SDS011;22890;51.820;8.682;2024-03-08T03:48:02;31.47;;;15.67;;
11024;SDS011;22890;51.820;8.682;2024-03-08T03:50:30;25.63;;;15.27;;
11024;SDS011;22890;51.820;8.682;2024-03-08T03:53:01;24.53;;;15.67;;
11024;SDS011;22890;51.820;8.682;2024-03-08T03:55:28;29.30;;;16.23;;
11024;SDS011;22890;51.820;8.682;2024-03-08T03:57:56;30.17;;;16.23;;
11024;SDS011;22890;51.820;8.682;2024-03-08T04:00:25;30.03;;;16.90;;
11024;SDS011;22890;51.820;8.682;2024-03-08T04:02:53;30.00;;;15.47;;
11024;SDS011;22890;51.820;8.682;2024-03-08T04:05:21;27.33;;;14.90;;
11024;SDS011;22890;51.820;8.682;2024-03-08T04:07:48;33.73;;;16.40;;
11024;SDS011;22890;51.820;8.682;2024-03-08T04:10:15;25.97;;;15.10;;
11024;SDS011;22890;51.820;8.682;2024-03-08T04:12:42;30.40;;;16.70;;
11024;SDS011;22890;51.820;8.682;2024-03-08T04:15:09;29.10;;;15.93;;
11024;SDS011;22890;51.820;8.682;2024-03-08T04:17:37;25.87;;;15.77;;
11024;SDS011;22890;51.820;8.682;2024-03-08T04:20:04;26.80;;;15.23;;
11024;SDS011;22890;51.820;8.682;2024-03-08T04:22:36;29.17;;;15.80;;
11024;SDS011;22890;51.820;8.682;2024-03-08T04:25:03;33.60;;;16.70;;
11024;SDS011;22890;51.820;8.682;2024-03-08T04:27:32;28.57;;;15.60;;
11024;SDS011;22890;51.820;8.682;2024-03-08T04:30:00;27.20;;;15.27;;
11024;SDS011;22890;51.820;8.682;2024-03-08T04:32:27;32.07;;;16.40;;
11024;SDS011;22890;51.820;8.682;2024-03-08T04:34:56;31.83;;;17.17;;
11024;SDS011;22890;51.820;8.682;2024-03-08T04:37:23;26.77;;;15.30;;
11024;SDS011;22890;51.820;8.682;2024-03-08T04:39:51;26.80;;;15.57;;
11024;SDS011;22890;51.820;8.682;2024-03-08T04:42:18;26.70;;;15.13;;
11024;SDS011;22890;51.820;8.682;2024-03-08T04:44:46;30.63;;;16.07;;
11024;SDS011;22890;51.820;8.682;2024-03-08T04:47:13;28.50;;;16.37;;
11024;SDS011;22890;51.820;8.682;2024-03-08T04:49:40;29.27;;;17.03;;
11024;SDS011;22890;51.820;8.682;2024-03-08T04:52:07;29.93;;;16.93;;
11024;SDS011;22890;51.820;8.682;2024-03-08T04:54:34;30.03;;;16.10;;
11024;SDS011;22890;51.820;8.682;2024-03-08T04:57:01;30.93;;;16.67;;
11024;SDS011;22890;51.820;8.682;2024-03-08T04:59:34;31.87;;;16.43;;
11024;SDS011;22890;51.820;8.682;2024-03-08T05:02:02;31.60;;;16.53;;
11024;SDS011;22890;51.820;8.682;2024-03-08T05:04:29;31.33;;;16.23;;
11024;SDS011;22890;51.820;8.682;2024-03-08T05:06:57;33.40;;;16.73;;
11024;SDS011;22890;51.820;8.682;2024-03-08T05:09:27;32.53;;;15.37;;
11024;SDS011;22890;51.820;8.682;2024-03-08T05:11:57;33.97;;;17.40;;
11024;SDS011;22890;51.820;8.682;2024-03-08T05:14:26;32.47;;;16.97;;
11024;SDS011;22890;51.820;8.682;2024-03-08T05:16:53;32.63;;;18.10;;
11024;SDS011;22890;51.820;8.682;2024-03-08T05:19:20;28.03;;;16.20;;
11024;SDS011;22890;51.820;8.682;2024-03-08T05:21:48;30.03;;;16.70;;
11024;SDS011;22890;51.820;8.682;2024-03-08T05:24:16;31.30;;;16.67;;
11024;SDS011;22890;51.820;8.682;2024-03-08T05:26:45;30.17;;;16.03;;
11024;SDS011;22890;51.820;8.682;2024-03-08T05:29:12;33.00;;;17.50;;
11024;SDS011;22890;51.820;8.682;2024-03-08T05:31:43;32.27;;;16.73;;
11024;SDS011;22890;51.820;8.682;2024-03-08T05:34:13;27.67;;;15.43;;
11024;SDS011;22890;51.820;8.682;2024-03-08T05:36:41;31.90;;;17.70;;
11024;SDS011;22890;51.820;8.682;2024-03-08T05:39:13;27.50;;;16.40;;
11024;SDS011;22890;51.820;8.682;2024-03-08T05:41:40;35.50;;;17.07;;
11024;SDS011;22890;51.820;8.682;2024-03-08T05:44:07;32.07;;;17.03;;
11024;SDS011;22890;51.820;8.682;2024-03-08T05:46:34;28.27;;;15.63;;
11024;SDS011;22890;51.820;8.682;2024-03-08T05:49:04;31.20;;;16.47;;
11024;SDS011;22890;51.820;8.682;2024-03-08T05:51:33;28.57;;;16.57;;
11024;SDS011;22890;51.820;8.682;2024-03-08T05:54:03;29.17;;;16.50;;
11024;SDS011;22890;51.820;8.682;2024-03-08T05:56:35;31.97;;;17.30;;
11024;SDS011;22890;51.820;8.682;2024-03-08T05:59:03;30.80;;;17.57;;
11024;SDS011;22890;51.820;8.682;2024-03-08T06:01:30;27.67;;;16.90;;
11024;SDS011;22890;51.820;8.682;2024-03-08T06:03:57;30.87;;;16.37;;
11024;SDS011;22890;51.820;8.682;2024-03-08T06:06:24;32.83;;;17.30;;
11024;SDS011;22890;51.820;8.682;2024-03-08T06:08:52;35.63;;;17.57;;
11024;SDS011;22890;51.820;8.682;2024-03-08T06:11:19;31.67;;;16.53;;
11024;SDS011;22890;51.820;8.682;2024-03-08T06:13:47;30.77;;;16.67;;
11024;SDS011;22890;51.820;8.682;2024-03-08T06:16:14;31.03;;;17.17;;
11024;SDS011;22890;51.820;8.682;2024-03-08T06:18:41;29.07;;;17.03;;
11024;SDS011;22890;51.820;8.682;2024-03-08T06:21:08;27.63;;;15.70;;
11024;SDS011;22890;51.820;8.682;2024-03-08T06:23:37;26.70;;;15.77;;
11024;SDS011;22890;51.820;8.682;2024-03-08T06:26:05;30.47;;;16.87;;
11024;SDS011;22890;51.820;8.682;2024-03-08T06:28:32;32.87;;;17.80;;
11024;SDS011;22890;51.820;8.682;2024-03-08T06:30:59;31.50;;;16.50;;
11024;SDS011;22890;51.820;8.682;2024-03-08T06:33:26;28.87;;;16.50;;
11024;SDS011;22890;51.820;8.682;2024-03-08T06:35:54;29.07;;;16.27;;
11024;SDS011;22890;51.820;8.682;2024-03-08T06:38:24;26.73;;;15.77;;
11024;SDS011;22890;51.820;8.682;2024-03-08T06:40:51;31.07;;;17.10;;
11024;SDS011;22890;51.820;8.682;2024-03-08T06:43:18;30.43;;;16.50;;
11024;SDS011;22890;51.820;8.682;2024-03-08T06:45:45;31.57;;;16.07;;
11024;SDS011;22890;51.820;8.682;2024-03-08T06:48:15;33.37;;;16.70;;
11024;SDS011;22890;51.820;8.682;2024-03-08T06:50:46;33.27;;;16.70;;
11024;SDS011;22890;51.820;8.682;2024-03-08T06:53:14;33.20;;;17.53;;
11024;SDS011;22890;51.820;8.682;2024-03-08T06:55:44;36.30;;;17.57;;
11024;SDS011;22890;51.820;8.682;2024-03-08T06:58:11;33.93;;;17.03;;
11024;SDS011;22890;51.820;8.682;2024-03-08T07:00:38;31.57;;;16.77;;
11024;SDS011;22890;51.820;8.682;2024-03-08T07:03:08;28.83;;;17.87;;
11024;SDS011;22890;51.820;8.682;2024-03-08T07:05:38;31.03;;;17.17;;
11024;SDS011;22890;51.820;8.682;2024-03-08T07:08:06;34.27;;;17.53;;
11024;SDS011;22890;51.820;8.682;2024-03-08T07:10:34;36.97;;;18.23;;
11024;SDS011;22890;51.820;8.682;2024-03-08T07:13:01;27.80;;;17.50;;
11024;SDS011;22890;51.820;8.682;2024-03-08T07:15:28;36.80;;;17.50;;
11024;SDS011;22890;51.820;8.682;2024-03-08T07:17:55;36.77;;;17.57;;
11024;SDS011;22890;51.820;8.682;2024-03-08T07:20:22;31.30;;;18.17;;
11024;SDS011;22890;51.820;8.682;2024-03-08T07:22:49;29.53;;;17.47;;
11024;SDS011;22890;51.820;8.682;2024-03-08T07:25:19;29.87;;;18.00;;
11024;SDS011;22890;51.820;8.682;2024-03-08T07:27:50;33.47;;;18.00;;
11024;SDS011;22890;51.820;8.682;2024-03-08T07:30:22;32.77;;;18.93;;
11024;SDS011;22890;51.820;8.682;2024-03-08T07:33:09;28.90;;;17.10;;
11024;SDS011;22890;51.820;8.682;2024-03-08T07:35:40;33.20;;;17.93;;
11024;SDS011;22890;51.820;8.682;2024-03-08T07:38:08;33.40;;;17.10;;
11024;SDS011;22890;51.820;8.682;2024-03-08T07:40:36;36.80;;;19.17;;
11024;SDS011;22890;51.820;8.682;2024-03-08T07:43:07;31.87;;;17.40;;
11024;SDS011;22890;51.820;8.682;2024-03-08T07:45:34;38.10;;;19.13;;
11024;SDS011;22890;51.820;8.682;2024-03-08T07:48:02;35.10;;;17.83;;
11024;SDS011;22890;51.820;8.682;2024-03-08T07:50:29;30.90;;;17.67;;
11024;SDS011;22890;51.820;8.682;2024-03-08T07:52:57;30.17;;;16.83;;
11024;SDS011;22890;51.820;8.682;2024-03-08T07:55:24;27.87;;;16.63;;
11024;SDS011;22890;51.820;8.682;2024-03-08T07:57:51;32.10;;;17.77;;
11024;SDS011;22890;51.820;8.682;2024-03-08T08:00:17;35.30;;;18.53;;
11024;SDS011;22890;51.820;8.682;2024-03-08T08:02:45;30.70;;;17.27;;
11024;SDS011;22890;51.820;8.682;2024-03-08T08:05:11;36.30;;;17.17;;
11024;SDS011;22890;51.820;8.682;2024-03-08T08:07:39;36.07;;;17.13;;
11024;SDS011;22890;51.820;8.682;2024-03-08T08:10:10;30.17;;;17.47;;
11024;SDS011;22890;51.820;8.682;2024-03-08T08:12:44;27.97;;;17.07;;
11024;SDS011;22890;51.820;8.682;2024-03-08T08:15:12;27.47;;;15.70;;
11024;SDS011;22890;51.820;8.682;2024-03-08T08:17:41;31.27;;;17.23;;
11024;SDS011;22890;51.820;8.682;2024-03-08T08:20:09;37.33;;;17.30;;
11024;SDS011;22890;51.820;8.682;2024-03-08T08:22:38;29.77;;;16.93;;
11024;SDS011;22890;51.820;8.682;2024-03-08T08:25:06;34.57;;;17.93;;
11024;SDS011;22890;51.820;8.682;2024-03-08T08:27:33;31.80;;;16.97;;
11024;SDS011;22890;51.820;8.682;2024-03-08T08:30:02;33.63;;;17.33;;
11024;SDS011;22890;51.820;8.682;2024-03-08T08:32:34;35.50;;;16.67;;
11024;SDS011;22890;51.820;8.682;2024-03-08T08:35:03;32.07;;;18.00;;
11024;SDS011;22890;51.820;8.682;2024-03-08T08:37:31;30.10;;;17.37;;
11024;SDS011;22890;51.820;8.682;2024-03-08T08:39:58;31.90;;;17.47;;
11024;SDS011;22890;51.820;8.682;2024-03-08T08:42:31;29.27;;;16.07;;
11024;SDS011;22890;51.820;8.682;2024-03-08T08:44:58;27.00;;;16.63;;
11024;SDS011;22890;51.820;8.682;2024-03-08T08:47:37;29.90;;;16.57;;
11024;SDS011;22890;51.820;8.682;2024-03-08T08:50:04;31.60;;;17.27;;
11024;SDS011;22890;51.820;8.682;2024-03-08T08:52:31;35.13;;;18.47;;
11024;SDS011;22890;51.820;8.682;2024-03-08T08:54:58;31.47;;;16.33;;
11024;SDS011;22890;51.820;8.682;2024-03-08T08:57:25;30.80;;;17.03;;
11024;SDS011;22890;51.820;8.682;2024-03-08T08:59:53;33.07;;;17.43;;
11024;SDS011;22890;51.820;8.682;2024-03-08T09:02:22;29.97;;;15.80;;
11024;SDS011;22890;51.820;8.682;2024-03-08T09:04:49;28.87;;;16.23;;
11024;SDS011;22890;51.820;8.682;2024-03-08T09:07:17;28.13;;;16.80;;
11024;SDS011;22890;51.820;8.682;2024-03-08T09:09:45;29.00;;;16.83;;
11024;SDS011;22890;51.820;8.682;2024-03-08T09:12:12;26.70;;;16.23;;
11024;SDS011;22890;51.820;8.682;2024-03-08T09:14:40;29.23;;;17.30;;
11024;SDS011;22890;51.820;8.682;2024-03-08T09:17:07;30.50;;;17.83;;
11024;SDS011;22890;51.820;8.682;2024-03-08T09:19:35;27.17;;;15.87;;
11024;SDS011;22890;51.820;8.682;2024-03-08T09:22:03;26.83;;;16.00;;
11024;SDS011;22890;51.820;8.682;2024-03-08T09:24:30;27.37;;;17.00;;
11024;SDS011;22890;51.820;8.682;2024-03-08T09:26:57;31.87;;;17.67;;
11024;SDS011;22890;51.820;8.682;2024-03-08T09:29:27;29.97;;;17.93;;
11024;SDS011;22890;51.820;8.682;2024-03-08T09:31:54;25.87;;;15.83;;
11024;SDS011;22890;51.820;8.682;2024-03-08T09:34:22;24.27;;;14.90;;
11024;SDS011;22890;51.820;8.682;2024-03-08T09:36:57;25.33;;;15.83;;
11024;SDS011;22890;51.820;8.682;2024-03-08T09:39:24;28.50;;;16.83;;
11024;SDS011;22890;51.820;8.682;2024-03-08T09:41:53;26.00;;;15.70;;
11024;SDS011;22890;51.820;8.682;2024-03-08T09:44:21;30.53;;;16.57;;
11024;SDS011;22890;51.820;8.682;2024-03-08T09:46:53;23.77;;;14.73;;
11024;SDS011;22890;51.820;8.682;2024-03-08T09:49:20;28.07;;;15.90;;
11024;SDS011;22890;51.820;8.682;2024-03-08T09:51:47;29.00;;;16.63;;
11024;SDS011;22890;51.820;8.682;2024-03-08T09:54:15;25.70;;;15.73;;
11024;SDS011;22890;51.820;8.682;2024-03-08T09:56:48;23.83;;;15.00;;
11024;SDS011;22890;51.820;8.682;2024-03-08T09:59:18;24.13;;;15.83;;
11024;SDS011;22890;51.820;8.682;2024-03-08T10:01:54;25.63;;;15.70;;
11024;SDS011;22890;51.820;8.682;2024-03-08T10:04:25;24.57;;;15.53;;
11024;SDS011;22890;51.820;8.682;2024-03-08T10:06:54;26.90;;;16.10;;
11024;SDS011;22890;51.820;8.682;2024-03-08T10:09:23;25.33;;;16.37;;
11024;SDS011;22890;51.820;8.682;2024-03-08T10:11:53;24.60;;;16.27;;
11024;SDS011;22890;51.820;8.682;2024-03-08T10:14:26;23.53;;;14.33;;
11024;SDS011;22890;51.820;8.682;2024-03-08T10:16:54;31.07;;;16.23;;
11024;SDS011;22890;51.820;8.682;2024-03-08T10:19:26;26.87;;;15.83;;
11024;SDS011;22890;51.820;8.682;2024-03-08T10:21:56;24.10;;;14.90;;
11024;SDS011;22890;51.820;8.682;2024-03-08T10:24:25;23.80;;;16.20;;
11024;SDS011;22890;51.820;8.682;2024-03-08T10:27:01;24.27;;;14.47;;
11024;SDS011;22890;51.820;8.682;2024-03-08T10:29:31;24.20;;;15.40;;
11024;SDS011;22890;51.820;8.682;2024-03-08T10:31:58;23.23;;;14.57;;
11024;SDS011;22890;51.820;8.682;2024-03-08T10:34:25;22.40;;;15.57;;
11024;SDS011;22890;51.820;8.682;2024-03-08T10:36:52;21.77;;;14.00;;
11024;SDS011;22890;51.820;8.682;2024-03-08T10:39:24;24.23;;;15.90;;
11024;SDS011;22890;51.820;8.682;2024-03-08T10:42:02;21.70;;;14.37;;
11024;SDS011;22890;51.820;8.682;2024-03-08T10:47:09;23.03;;;14.07;;
11024;SDS011;22890;51.820;8.682;2024-03-08T10:52:20;22.67;;;13.03;;
11024;SDS011;22890;51.820;8.682;2024-03-08T10:54:48;20.13;;;12.43;;
11024;SDS011;22890;51.820;8.682;2024-03-08T10:57:17;25.20;;;14.83;;
11024;SDS011;22890;51.820;8.682;2024-03-08T10:59:46;22.87;;;14.27;;
11024;SDS011;22890;51.820;8.682;2024-03-08T11:02:16;20.83;;;13.70;;
11024;SDS011;22890;51.820;8.682;2024-03-08T11:04:45;25.17;;;15.27;;
11024;SDS011;22890;51.820;8.682;2024-03-08T11:07:16;20.37;;;13.50;;
11024;SDS011;22890;51.820;8.682;2024-03-08T11:09:49;20.33;;;13.03;;
11024;SDS011;22890;51.820;8.682;2024-03-08T11:14:56;19.50;;;12.57;;
11024;SDS011;22890;51.820;8.682;2024-03-08T11:19:58;22.57;;;13.10;;
11024;SDS011;22890;51.820;8.682;2024-03-08T11:22:28;19.63;;;13.13;;
11024;SDS011;22890;51.820;8.682;2024-03-08T11:25:02;18.73;;;12.67;;
11024;SDS011;22890;51.820;8.682;2024-03-08T11:27:35;20.90;;;13.43;;
11024;SDS011;22890;51.820;8.682;2024-03-08T11:30:03;19.20;;;12.33;;
11024;SDS011;22890;51.820;8.682;2024-03-08T11:32:44;17.87;;;12.93;;
11024;SDS011;22890;51.820;8.682;2024-03-08T11:35:18;20.50;;;14.00;;
11024;SDS011;22890;51.820;8.682;2024-03-08T11:37:47;22.73;;;14.53;;
11024;SDS011;22890;51.820;8.682;2024-03-08T11:40:14;19.50;;;13.90;;
11024;SDS011;22890;51.820;8.682;2024-03-08T11:42:45;19.47;;;12.57;;
11024;SDS011;22890;51.820;8.682;2024-03-08T11:45:17;21.13;;;13.57;;
11024;SDS011;22890;51.820;8.682;2024-03-08T11:47:44;20.87;;;14.30;;
11024;SDS011;22890;51.820;8.682;2024-03-08T11:50:16;22.53;;;13.70;;
11024;SDS011;22890;51.820;8.682;2024-03-08T11:52:45;18.43;;;13.17;;
11024;SDS011;22890;51.820;8.682;2024-03-08T11:55:12;20.77;;;13.33;;
11024;SDS011;22890;51.820;8.682;2024-03-08T11:57:39;20.00;;;13.13;;
11024;SDS011;22890;51.820;8.682;2024-03-08T12:00:14;15.97;;;11.93;;
11024;SDS011;22890;51.820;8.682;2024-03-08T12:03:00;20.37;;;13.43;;
11024;SDS011;22890;51.820;8.682;2024-03-08T12:05:28;18.53;;;12.90;;
11024;SDS011;22890;51.820;8.682;2024-03-08T12:08:00;21.70;;;13.40;;
11024;SDS011;22890;51.820;8.682;2024-03-08T12:10:33;21.17;;;14.40;;
11024;SDS011;22890;51.820;8.682;2024-03-08T12:13:01;18.57;;;13.07;;
11024;SDS011;22890;51.820;8.682;2024-03-08T12:15:30;18.27;;;12.33;;
11024;SDS011;22890;51.820;8.682;2024-03-08T12:18:00;19.30;;;12.47;;
11024;SDS011;22890;51.820;8.682;2024-03-08T12:20:27;17.67;;;12.40;;
11024;SDS011;22890;51.820;8.682;2024-03-08T12:22:56;18.57;;;12.57;;
11024;SDS011;22890;51.820;8.682;2024-03-08T12:25:27;21.40;;;12.47;;
11024;SDS011;22890;51.820;8.682;2024-03-08T12:28:06;20.57;;;13.17;;
11024;SDS011;22890;51.820;8.682;2024-03-08T12:30:48;24.60;;;14.20;;
11024;SDS011;22890;51.820;8.682;2024-03-08T12:33:19;19.27;;;13.17;;
11024;SDS011;22890;51.820;8.682;2024-03-08T12:35:52;19.10;;;13.17;;
11024;SDS011;22890;51.820;8.682;2024-03-08T12:38:27;20.30;;;13.13;;
11024;SDS011;22890;51.820;8.682;2024-03-08T12:40:55;22.03;;;14.27;;
11024;SDS011;22890;51.820;8.682;2024-03-08T12:43:23;19.17;;;13.47;;
11024;SDS011;22890;51.820;8.682;2024-03-08T12:45:50;21.17;;;13.33;;
11024;SDS011;22890;51.820;8.682;2024-03-08T12:48:17;21.60;;;13.00;;
11024;SDS011;22890;51.820;8.682;2024-03-08T12:50:45;17.23;;;11.37;;
11024;SDS011;22890;51.820;8.682;2024-03-08T12:53:14;20.13;;;12.67;;
11024;SDS011;22890;51.820;8.682;2024-03-08T12:55:41;18.63;;;12.50;;
11024;SDS011;22890;51.820;8.682;2024-03-08T12:58:08;21.50;;;13.40;;
11024;SDS011;22890;51.820;8.682;2024-03-08T13:00:35;22.30;;;12.97;;
11024;SDS011;22890;51.820;8.682;2024-03-08T13:03:03;19.60;;;12.00;;
11024;SDS011;22890;51.820;8.682;2024-03-08T13:05:29;18.93;;;12.67;;
11024;SDS011;22890;51.820;8.682;2024-03-08T13:07:56;17.53;;;12.30;;
11024;SDS011;22890;51.820;8.682;2024-03-08T13:10:24;19.93;;;12.60;;
11024;SDS011;22890;51.820;8.682;2024-03-08T13:12:50;18.63;;;13.23;;
11024;SDS011;22890;51.820;8.682;2024-03-08T13:15:20;20.27;;;13.03;;
11024;SDS011;22890;51.820;8.682;2024-03-08T13:17:47;23.03;;;13.07;;
11024;SDS011;22890;51.820;8.682;2024-03-08T13:20:15;17.67;;;11.97;;
11024;SDS011;22890;51.820;8.682;2024-03-08T13:22:55;18.70;;;13.10;;
11024;SDS011;22890;51.820;8.682;2024-03-08T13:25:23;23.87;;;13.63;;
11024;SDS011;22890;51.820;8.682;2024-03-08T13:27:50;22.10;;;12.90;;
11024;SDS011;22890;51.820;8.682;2024-03-08T13:30:20;20.90;;;12.97;;
11024;SDS011;22890;51.820;8.682;2024-03-08T13:32:52;21.43;;;14.13;;
11024;SDS011;22890;51.820;8.682;2024-03-08T13:35:20;21.97;;;13.40;;
11024;SDS011;22890;51.820;8.682;2024-03-08T13:37:56;20.03;;;11.47;;
11024;SDS011;22890;51.820;8.682;2024-03-08T13:40:23;19.23;;;13.47;;
11024;SDS011;22890;51.820;8.682;2024-03-08T13:42:49;21.77;;;13.20;;
11024;SDS011;22890;51.820;8.682;2024-03-08T13:45:16;17.83;;;12.80;;
11024;SDS011;22890;51.820;8.682;2024-03-08T13:47:50;22.60;;;12.73;;
11024;SDS011;22890;51.820;8.682;2024-03-08T13:50:20;19.53;;;13.67;;
11024;SDS011;22890;51.820;8.682;2024-03-08T13:52:49;19.40;;;13.80;;
11024;SDS011;22890;51.820;8.682;2024-03-08T13:55:20;20.47;;;14.30;;
11024;SDS011;22890;51.820;8.682;2024-03-08T13:57:54;19.93;;;13.60;;
11024;SDS011;22890;51.820;8.682;2024-03-08T14:00:23;20.90;;;12.03;;
11024;SDS011;22890;51.820;8.682;2024-03-08T14:02:53;22.00;;;13.77;;
11024;SDS011;22890;51.820;8.682;2024-03-08T14:05:20;20.90;;;13.77;;
11024;SDS011;22890;51.820;8.682;2024-03-08T14:07:47;21.00;;;13.30;;
11024;SDS011;22890;51.820;8.682;2024-03-08T14:10:16;20.40;;;13.33;;
11024;SDS011;22890;51.820;8.682;2024-03-08T14:12:46;22.30;;;14.60;;
11024;SDS011;22890;51.820;8.682;2024-03-08T14:15:16;19.33;;;13.53;;
11024;SDS011;22890;51.820;8.682;2024-03-08T14:17:43;22.07;;;13.57;;
11024;SDS011;22890;51.820;8.682;2024-03-08T14:20:13;19.07;;;12.80;;
11024;SDS011;22890;51.820;8.682;2024-03-08T14:22:39;23.20;;;13.97;;
11024;SDS011;22890;51.820;8.682;2024-03-08T14:25:06;22.00;;;14.73;;
11024;SDS011;22890;51.820;8.682;2024-03-08T14:27:45;20.83;;;13.50;;
11024;SDS011;22890;51.820;8.682;2024-03-08T14:30:13;24.50;;;12.63;;
11024;SDS011;22890;51.820;8.682;2024-03-08T14:32:44;18.23;;;13.00;;
11024;SDS011;22890;51.820;8.682;2024-03-08T14:35:11;22.37;;;13.80;;
11024;SDS011;22890;51.820;8.682;2024-03-08T14:37:37;27.03;;;14.53;;
11024;SDS011;22890;51.820;8.682;2024-03-08T14:40:05;21.60;;;14.43;;